createdAt,value
2018-06-21T00:01:46.173Z,7.85
2018-06-21T00:04:20.497Z,6.05
2018-06-21T00:06:54.972Z,7.12
2018-06-21T00:09:29.290Z,6.03
2018-06-21T00:12:03.616Z,7.15
2018-06-21T00:14:37.973Z,6.10
2018-06-21T00:17:12.200Z,5.75
2018-06-21T00:19:46.568Z,5.55
2018-06-21T00:22:20.870Z,5.90
2018-06-21T00:24:55.216Z,6.00
2018-06-21T00:27:29.553Z,6.60
2018-06-21T00:30:03.878Z,6.53
2018-06-21T00:32:38.335Z,5.78
2018-06-21T00:35:12.451Z,6.60
2018-06-21T00:37:46.744Z,6.47
2018-06-21T00:40:21.109Z,6.33
2018-06-21T00:42:55.375Z,5.62
2018-06-21T00:45:29.637Z,5.95
2018-06-21T00:48:04.061Z,5.37
2018-06-21T00:50:38.339Z,7.15
2018-06-21T00:53:12.638Z,6.35
2018-06-21T00:55:58.391Z,6.03
2018-06-21T00:58:32.814Z,6.42
2018-06-21T01:01:07.289Z,6.42
2018-06-21T01:03:41.649Z,6.62
2018-06-21T01:06:16.261Z,6.03
2018-06-21T01:08:50.339Z,6.33
2018-06-21T01:11:24.590Z,5.08
2018-06-21T01:13:58.679Z,5.00
2018-06-21T01:16:32.971Z,5.67
2018-06-21T01:19:07.363Z,5.55
2018-06-21T01:21:41.754Z,5.83
2018-06-21T01:24:16.084Z,6.08
2018-06-21T01:26:50.266Z,6.03
2018-06-21T01:29:24.781Z,6.40
2018-06-21T01:31:59.186Z,5.40
2018-06-21T01:34:33.485Z,5.62
2018-06-21T01:37:07.811Z,5.90
2018-06-21T01:39:42.092Z,5.87
2018-06-21T01:42:16.398Z,5.85
2018-06-21T01:44:50.728Z,5.90
2018-06-21T01:47:25.171Z,5.60
2018-06-21T01:49:59.323Z,6.17
2018-06-21T01:52:33.567Z,6.17
2018-06-21T01:55:07.986Z,5.70
2018-06-21T01:57:42.381Z,6.75
2018-06-21T02:24:12.279Z,5.50
2018-06-21T02:26:46.595Z,5.47
2018-06-21T02:29:20.909Z,5.87
2018-06-21T02:31:55.097Z,5.70
2018-06-21T02:34:29.423Z,5.92
2018-06-21T02:37:03.842Z,5.37
2018-06-21T02:39:38.191Z,5.87
2018-06-21T02:42:12.710Z,4.80
2018-06-21T02:44:46.780Z,5.90
2018-06-21T02:47:21.143Z,5.40
2018-06-21T02:49:55.219Z,6.00
2018-06-21T02:52:29.593Z,5.60
2018-06-21T02:55:04.007Z,5.60
2018-06-21T02:57:38.540Z,5.35
2018-06-21T03:00:13.011Z,5.35
2018-06-21T03:02:47.376Z,4.92
2018-06-21T03:05:21.808Z,6.08
2018-06-21T03:07:56.106Z,5.53
2018-06-21T03:10:30.518Z,5.70
2018-06-21T03:13:04.992Z,5.50
2018-06-21T03:15:39.290Z,5.70
2018-06-21T03:18:13.648Z,5.47
2018-06-21T03:20:48.137Z,5.08
2018-06-21T03:23:22.512Z,5.12
2018-06-21T03:25:56.715Z,4.97
2018-06-21T03:28:31.115Z,4.87
2018-06-21T03:31:05.233Z,4.83
2018-06-21T03:33:39.664Z,4.35
2018-06-21T03:36:13.769Z,5.20
2018-06-21T03:38:48.230Z,5.70
2018-06-21T03:41:22.414Z,5.28
2018-06-21T03:43:56.830Z,6.05
2018-06-21T03:46:30.918Z,6.35
2018-06-21T03:49:05.499Z,5.80
2018-06-21T03:51:39.812Z,5.75
2018-06-21T03:54:14.081Z,5.12
2018-06-21T03:56:48.412Z,5.62
2018-06-21T03:59:22.659Z,5.60
2018-06-21T04:01:57.127Z,6.12
2018-06-21T04:04:31.548Z,6.40
2018-06-21T04:07:05.918Z,6.37
2018-06-21T04:09:40.338Z,5.78
2018-06-21T04:12:14.623Z,6.08
2018-06-21T04:14:48.970Z,5.15
2018-06-21T04:17:23.470Z,5.08
2018-06-21T04:19:57.806Z,5.40
2018-06-21T04:22:32.128Z,6.10
2018-06-21T04:25:06.478Z,5.70
2018-06-21T04:27:40.957Z,6.42
2018-06-21T04:30:15.264Z,7.03
2018-06-21T04:32:49.732Z,6.10
2018-06-21T04:35:24.002Z,5.60
2018-06-21T04:37:58.394Z,6.25
2018-06-21T04:40:32.847Z,6.30
2018-06-21T04:43:07.304Z,6.47
2018-06-21T04:45:41.893Z,6.40
2018-06-21T04:48:16.360Z,5.20
2018-06-21T04:50:50.715Z,5.80
2018-06-21T04:53:25.099Z,6.97
2018-06-21T04:55:59.419Z,5.90
2018-06-21T04:58:33.572Z,6.40
2018-06-21T05:01:07.989Z,6.47
2018-06-21T05:03:42.322Z,6.22
2018-06-21T05:06:17.229Z,7.00
2018-06-21T05:08:51.684Z,6.55
2018-06-21T05:11:26.052Z,7.75
2018-06-21T05:14:00.084Z,5.92
2018-06-21T05:16:34.433Z,6.60
2018-06-21T05:19:08.860Z,6.95
2018-06-21T05:21:43.130Z,5.35
2018-06-21T05:24:17.490Z,6.03
2018-06-21T05:26:51.799Z,7.37
2018-06-21T05:29:26.126Z,7.70
2018-06-21T05:32:00.486Z,6.75
2018-06-21T05:34:34.739Z,6.22
2018-06-21T05:37:09.175Z,5.03
2018-06-21T05:39:43.565Z,6.00
2018-06-21T05:42:18.012Z,5.65
2018-06-21T05:44:52.322Z,6.10
2018-06-21T05:47:26.419Z,5.72
2018-06-21T05:50:00.824Z,5.78
2018-06-21T05:52:35.359Z,4.60
2018-06-21T05:55:09.796Z,4.83
2018-06-21T05:57:43.891Z,4.47
2018-06-21T06:00:18.306Z,5.00
2018-06-21T06:02:52.426Z,5.20
2018-06-21T06:05:26.985Z,4.45
2018-06-21T06:08:01.412Z,4.50
2018-06-21T06:10:35.841Z,5.17
2018-06-21T06:13:10.285Z,4.97
2018-06-21T06:15:44.693Z,4.15
2018-06-21T06:18:18.990Z,4.33
2018-06-21T06:20:53.160Z,4.03
2018-06-21T06:23:27.429Z,4.00
2018-06-21T06:26:01.861Z,3.95
2018-06-21T06:28:36.289Z,3.98
2018-06-21T06:31:10.529Z,4.12
2018-06-21T06:33:44.869Z,3.83
2018-06-21T06:36:19.381Z,3.83
2018-06-21T06:38:53.846Z,3.50
2018-06-21T06:41:28.402Z,3.52
2018-06-21T06:44:02.826Z,5.40
2018-06-21T06:46:37.275Z,3.55
2018-06-21T06:49:12.087Z,3.55
2018-06-21T06:51:46.505Z,3.60
2018-06-21T06:54:20.958Z,3.70
2018-06-21T06:56:55.280Z,3.85
2018-06-21T06:59:29.710Z,3.80
2018-06-21T07:02:04.015Z,4.10
2018-06-21T07:04:38.623Z,3.52
2018-06-21T07:07:13.044Z,3.72
2018-06-21T07:09:47.033Z,4.05
2018-06-21T07:12:21.496Z,3.75
2018-06-21T07:14:55.802Z,4.42
2018-06-21T07:17:30.246Z,4.72
2018-06-21T07:20:04.678Z,4.67
2018-06-21T07:22:39.128Z,5.08
2018-06-21T07:25:13.544Z,4.00
2018-06-21T07:27:48.071Z,4.00
2018-06-21T07:30:22.357Z,4.33
2018-06-21T07:32:56.478Z,4.15
2018-06-21T07:35:30.933Z,3.90
2018-06-21T07:38:05.436Z,3.80
2018-06-21T07:40:39.791Z,4.30
2018-06-21T07:43:14.055Z,3.95
2018-06-21T07:45:48.330Z,4.10
2018-06-21T07:48:22.713Z,3.92
2018-06-21T07:50:57.024Z,3.92
2018-06-21T07:53:31.426Z,4.15
2018-06-21T07:56:05.728Z,3.83
2018-06-21T07:58:40.112Z,3.70
2018-06-21T08:01:14.368Z,3.77
2018-06-21T08:03:48.726Z,4.28
2018-06-21T08:06:23.078Z,4.35
2018-06-21T08:08:57.448Z,4.12
2018-06-21T08:11:31.650Z,4.45
2018-06-21T08:14:05.988Z,5.25
2018-06-21T08:16:43.256Z,5.25
2018-06-21T08:19:17.587Z,4.70
2018-06-21T08:21:52.029Z,3.95
2018-06-21T08:24:26.387Z,3.90
2018-06-21T08:27:00.767Z,4.25
2018-06-21T08:29:35.000Z,3.85
2018-06-21T08:32:09.266Z,3.80
2018-06-21T08:34:43.535Z,3.62
2018-06-21T08:37:17.806Z,3.55
2018-06-21T08:39:52.125Z,3.20
2018-06-21T08:42:26.428Z,3.60
2018-06-21T08:45:00.866Z,3.45
2018-06-21T08:47:35.178Z,3.87
2018-06-21T08:50:09.603Z,3.90
2018-06-21T08:52:43.857Z,3.15
2018-06-21T08:55:18.293Z,3.45
2018-06-21T08:57:52.892Z,3.65
2018-06-21T09:00:27.300Z,3.83
2018-06-21T09:03:01.820Z,3.40
2018-06-21T09:05:35.932Z,3.12
2018-06-21T09:08:10.155Z,3.72
2018-06-21T09:10:44.717Z,3.30
2018-06-21T09:13:18.871Z,3.35
2018-06-21T09:15:53.274Z,3.72
2018-06-21T09:18:27.715Z,5.15
2018-06-21T09:21:02.414Z,4.72
2018-06-21T09:23:36.684Z,3.95
2018-06-21T09:26:10.980Z,3.20
2018-06-21T09:28:45.313Z,3.80
2018-06-21T09:31:19.626Z,3.60
2018-06-21T09:33:54.093Z,3.30
2018-06-21T09:36:32.867Z,3.30
2018-06-21T09:39:19.474Z,2.80
2018-06-21T09:41:59.186Z,2.80
2018-06-21T09:44:34.858Z,3.30
2018-06-21T09:47:14.525Z,2.90
2018-06-21T09:49:48.883Z,3.10
2018-06-21T09:52:23.062Z,4.08
2018-06-21T09:54:57.459Z,3.37
2018-06-21T09:57:31.942Z,3.27
2018-06-21T10:00:06.649Z,3.15
2018-06-21T10:02:41.078Z,3.35
2018-06-21T10:05:15.546Z,3.50
2018-06-21T10:07:49.873Z,3.52
2018-06-21T10:10:24.198Z,3.12
2018-06-21T10:12:58.621Z,3.05
2018-06-21T10:15:33.010Z,3.15
2018-06-21T10:18:07.164Z,3.75
2018-06-21T10:20:41.363Z,3.95
2018-06-21T10:23:15.875Z,5.20
2018-06-21T10:25:50.220Z,4.58
2018-06-21T10:28:24.514Z,3.92
2018-06-21T10:30:58.603Z,3.25
2018-06-21T10:33:33.077Z,3.60
2018-06-21T10:36:07.594Z,3.25
2018-06-21T10:38:41.756Z,3.45
2018-06-21T10:41:16.258Z,3.47
2018-06-21T10:43:50.664Z,3.15
2018-06-21T10:46:25.209Z,3.20
2018-06-21T10:48:59.535Z,3.50
2018-06-21T10:51:34.018Z,3.25
2018-06-21T10:54:08.529Z,3.22
2018-06-21T10:56:43.018Z,2.77
2018-06-21T10:59:17.357Z,3.60
2018-06-21T11:01:51.620Z,3.40
2018-06-21T11:04:26.055Z,3.90
2018-06-21T11:07:00.573Z,3.45
2018-06-21T11:09:35.003Z,3.65
2018-06-21T11:12:09.418Z,4.00
2018-06-21T11:14:43.831Z,4.20
2018-06-21T11:17:18.127Z,4.25
2018-06-21T11:19:52.558Z,4.30
2018-06-21T11:22:27.010Z,19.20
2018-06-21T11:25:01.399Z,4.40
2018-06-21T11:27:35.851Z,4.50
2018-06-21T11:30:10.215Z,4.95
2018-06-21T11:32:44.450Z,4.12
2018-06-21T11:35:18.591Z,3.67
2018-06-21T11:37:52.827Z,3.70
2018-06-21T11:40:27.254Z,3.90
2018-06-21T11:43:01.597Z,4.15
2018-06-21T11:45:35.749Z,4.50
2018-06-21T11:48:10.202Z,4.20
2018-06-21T11:50:44.613Z,4.53
2018-06-21T11:53:18.843Z,4.92
2018-06-21T11:55:53.256Z,3.72
2018-06-21T11:58:27.346Z,4.20
2018-06-21T12:01:01.852Z,3.80
2018-06-21T12:03:36.207Z,4.00
2018-06-21T12:06:10.300Z,3.90
2018-06-21T12:08:44.724Z,3.80
2018-06-21T12:11:18.916Z,3.72
2018-06-21T12:13:53.373Z,3.62
2018-06-21T12:16:27.848Z,3.20
2018-06-21T12:19:02.627Z,3.95
2018-06-21T12:21:37.086Z,4.10
2018-06-21T12:24:11.398Z,4.90
2018-06-21T12:26:45.927Z,4.73
2018-06-21T12:29:20.323Z,4.60
2018-06-21T12:31:54.697Z,4.50
2018-06-21T12:34:29.080Z,4.40
2018-06-21T12:37:03.666Z,4.37
2018-06-21T12:39:39.745Z,4.35
2018-06-21T12:42:14.020Z,4.15
2018-06-21T12:44:48.149Z,4.03
2018-06-21T12:47:22.354Z,4.37
2018-06-21T12:49:56.780Z,4.37
2018-06-21T12:52:31.370Z,3.98
2018-06-21T12:55:05.404Z,5.05
2018-06-21T12:57:39.795Z,4.35
2018-06-21T13:00:14.132Z,4.25
2018-06-21T13:02:48.674Z,4.72
2018-06-21T13:05:23.194Z,4.15
2018-06-21T13:07:57.636Z,4.00
2018-06-21T13:10:37.343Z,4.03
2018-06-21T13:13:23.536Z,4.80
2018-06-21T13:15:58.000Z,4.30
2018-06-21T13:18:32.278Z,4.60
2018-06-21T13:21:07.012Z,4.67
2018-06-21T13:23:41.386Z,4.67
2018-06-21T13:26:16.528Z,4.63
2018-06-21T13:28:50.809Z,4.30
2018-06-21T13:31:24.981Z,4.50
2018-06-21T13:33:59.481Z,4.05
2018-06-21T13:36:33.812Z,4.62
2018-06-21T13:39:07.991Z,4.15
2018-06-21T13:41:42.546Z,4.12
2018-06-21T13:44:16.658Z,4.80
2018-06-21T13:46:50.991Z,4.50
2018-06-21T13:49:25.359Z,4.42
2018-06-21T13:51:59.513Z,4.20
2018-06-21T13:54:34.020Z,4.83
2018-06-21T13:57:08.157Z,6.58
2018-06-21T13:59:42.763Z,6.80
2018-06-21T14:02:17.121Z,5.85
2018-06-21T14:04:51.217Z,4.92
2018-06-21T14:07:25.759Z,4.53
2018-06-21T14:10:00.259Z,3.98
2018-06-21T14:12:34.710Z,3.90
2018-06-21T14:15:09.654Z,4.03
2018-06-21T14:17:43.719Z,4.00
2018-06-21T14:20:18.157Z,4.28
2018-06-21T14:22:52.616Z,4.10
2018-06-21T14:25:27.079Z,4.00
2018-06-21T14:28:01.186Z,3.15
2018-06-21T14:30:35.453Z,3.62
2018-06-21T14:33:10.180Z,3.50
2018-06-21T14:35:46.535Z,3.58
2018-06-21T14:38:20.889Z,3.33
2018-06-21T14:40:55.292Z,3.35
2018-06-21T14:43:29.605Z,3.50
2018-06-21T14:46:03.914Z,3.25
2018-06-21T14:48:38.394Z,3.35
2018-06-21T14:51:12.720Z,3.52
2018-06-21T14:53:47.042Z,3.60
2018-06-21T14:56:21.668Z,3.90
2018-06-21T14:58:55.874Z,4.15
2018-06-21T15:01:30.310Z,3.90
2018-06-21T15:04:04.849Z,4.10
2018-06-21T15:06:39.232Z,3.83
2018-06-21T15:09:13.823Z,3.72
2018-06-21T15:11:48.158Z,3.92
2018-06-21T15:14:22.688Z,3.45
2018-06-21T15:16:56.941Z,3.22
2018-06-21T15:19:31.249Z,3.50
2018-06-21T15:22:05.731Z,3.87
2018-06-21T15:24:40.265Z,3.92
2018-06-21T15:27:14.694Z,3.90
2018-06-21T15:29:48.931Z,4.40
2018-06-21T15:32:23.213Z,4.90
2018-06-21T15:34:57.237Z,3.95
2018-06-21T15:37:31.698Z,3.33
2018-06-21T15:40:05.822Z,3.75
2018-06-21T15:42:40.152Z,3.60
2018-06-21T15:45:14.755Z,3.33
2018-06-21T15:47:49.217Z,3.45
2018-06-21T15:50:23.654Z,3.40
2018-06-21T15:53:01.132Z,3.30
2018-06-21T15:55:35.425Z,3.35
2018-06-21T15:58:09.686Z,6.72
2018-06-21T16:00:44.032Z,4.40
2018-06-21T16:03:18.384Z,5.10
2018-06-21T16:05:52.809Z,4.25
2018-06-21T16:08:27.171Z,4.70
2018-06-21T16:11:01.398Z,3.95
2018-06-21T16:13:35.450Z,4.62
2018-06-21T16:16:09.878Z,3.95
2018-06-21T16:18:44.474Z,3.80
2018-06-21T16:21:18.971Z,4.03
2018-06-21T16:23:53.291Z,3.47
2018-06-21T16:26:27.809Z,3.90
2018-06-21T16:29:02.206Z,3.70
2018-06-21T16:31:36.464Z,3.75
2018-06-21T16:34:10.697Z,3.50
2018-06-21T16:36:45.172Z,3.72
2018-06-21T16:39:22.692Z,3.30
2018-06-21T16:41:57.161Z,3.17
2018-06-21T16:44:31.365Z,3.30
2018-06-21T16:47:05.790Z,3.30
2018-06-21T16:49:40.201Z,3.55
2018-06-21T16:52:14.582Z,3.60
2018-06-21T16:54:48.963Z,3.67
2018-06-21T16:57:23.222Z,3.45
2018-06-21T16:59:57.594Z,3.52
2018-06-21T17:02:31.910Z,13.80
2018-06-21T17:05:06.316Z,4.80
2018-06-21T17:07:40.540Z,4.28
2018-06-21T17:10:14.978Z,3.92
2018-06-21T17:12:49.208Z,3.52
2018-06-21T17:15:23.594Z,3.70
2018-06-21T17:17:57.891Z,3.08
2018-06-21T17:20:32.243Z,3.65
2018-06-21T17:23:06.503Z,3.65
2018-06-21T17:25:40.826Z,4.00
2018-06-21T17:28:15.172Z,3.80
2018-06-21T17:30:49.428Z,2.95
2018-06-21T17:33:23.744Z,3.10
2018-06-21T17:35:58.160Z,3.75
2018-06-21T17:38:32.515Z,3.95
2018-06-21T17:41:07.096Z,3.40
2018-06-21T17:43:41.371Z,3.90
2018-06-21T17:46:15.783Z,4.17
2018-06-21T17:48:49.903Z,3.85
2018-06-21T17:51:24.228Z,3.55
2018-06-21T17:53:58.526Z,3.50
2018-06-21T17:56:32.782Z,3.77
2018-06-21T17:59:07.052Z,3.70
2018-06-21T18:01:41.623Z,3.40
2018-06-21T18:04:16.018Z,5.65
2018-06-21T18:06:50.303Z,5.22
2018-06-21T18:09:24.552Z,4.67
2018-06-21T18:11:58.867Z,4.47
2018-06-21T18:14:33.184Z,3.67
2018-06-21T18:17:07.458Z,3.45
2018-06-21T18:19:41.576Z,3.52
2018-06-21T18:22:15.775Z,3.98
2018-06-21T18:24:50.007Z,3.83
2018-06-21T18:27:24.582Z,3.45
2018-06-21T18:29:59.048Z,3.35
2018-06-21T18:32:33.427Z,3.25
2018-06-21T18:35:07.521Z,4.35
2018-06-21T18:37:41.769Z,4.30
2018-06-21T18:40:16.029Z,4.50
2018-06-21T18:42:50.303Z,3.45
2018-06-21T18:45:24.589Z,4.30
2018-06-21T18:47:58.893Z,3.87
2018-06-21T18:50:33.213Z,4.03
2018-06-21T18:53:07.521Z,3.83
2018-06-21T18:55:41.932Z,3.90
2018-06-21T18:58:16.381Z,3.40
2018-06-21T19:00:50.810Z,3.33
2018-06-21T19:03:25.131Z,4.17
2018-06-21T19:05:59.453Z,4.65
2018-06-21T19:08:39.189Z,3.70
2018-06-21T19:11:18.841Z,4.75
2018-06-21T19:13:53.354Z,4.65
2018-06-21T19:16:28.094Z,3.85
2018-06-21T19:19:02.557Z,3.30
2018-06-21T19:21:36.818Z,3.20
2018-06-21T19:24:11.123Z,2.87
2018-06-21T19:26:45.448Z,2.62
2018-06-21T19:29:19.650Z,2.90
2018-06-21T19:31:53.685Z,3.67
2018-06-21T19:34:27.926Z,3.30
2018-06-21T19:37:02.194Z,3.98
2018-06-21T19:39:36.574Z,4.72
2018-06-21T19:42:10.934Z,5.08
2018-06-21T19:44:45.288Z,4.05
2018-06-21T19:47:19.519Z,4.87
2018-06-21T19:49:53.726Z,5.30
2018-06-21T19:52:28.073Z,5.05
2018-06-21T19:55:02.485Z,5.70
2018-06-21T19:57:36.862Z,5.15
2018-06-21T20:00:10.957Z,5.40
2018-06-21T20:02:50.770Z,4.97
2018-06-21T20:05:25.051Z,6.35
2018-06-21T20:07:59.547Z,5.50
2018-06-21T20:10:33.958Z,5.90
2018-06-21T20:13:08.378Z,7.03
2018-06-21T20:15:54.414Z,5.45
2018-06-21T20:18:28.723Z,5.50
2018-06-21T20:21:02.965Z,4.97
2018-06-21T20:23:37.011Z,6.03
2018-06-21T20:26:11.771Z,4.25
2018-06-21T20:28:46.224Z,5.08
2018-06-21T20:31:20.571Z,5.35
2018-06-21T20:33:54.946Z,4.12
2018-06-21T20:36:30.056Z,4.85
2018-06-21T20:39:05.756Z,4.85
2018-06-21T20:41:40.224Z,3.77
2018-06-21T20:44:14.561Z,4.50
2018-06-21T20:46:48.738Z,4.40
2018-06-21T20:49:23.026Z,4.20
2018-06-21T20:51:57.392Z,3.40
2018-06-21T20:54:31.942Z,3.95
2018-06-21T20:57:06.049Z,3.50
2018-06-21T20:59:40.619Z,3.30
2018-06-21T21:02:14.763Z,3.87
2018-06-21T21:05:08.676Z,4.10
2018-06-21T21:07:43.787Z,6.33
2018-06-21T21:10:18.823Z,4.40
2018-06-21T21:12:53.308Z,4.67
2018-06-21T21:15:27.857Z,4.25
2018-06-21T21:18:02.454Z,3.83
2018-06-21T21:20:36.853Z,4.35
2018-06-21T21:23:11.047Z,4.90
2018-06-21T21:25:45.486Z,4.55
2018-06-21T21:28:19.942Z,4.72
2018-06-21T21:30:54.468Z,5.00
2018-06-21T21:33:28.837Z,5.20
2018-06-21T21:36:03.245Z,7.00
2018-06-21T21:38:37.546Z,7.22
2018-06-21T21:41:11.944Z,7.15
2018-06-21T21:43:46.243Z,6.90
2018-06-21T21:46:20.525Z,7.97
2018-06-21T21:48:55.157Z,7.83
2018-06-21T21:51:29.554Z,8.50
2018-06-21T21:54:04.143Z,9.30
2018-06-21T21:56:38.479Z,8.60
2018-06-21T21:59:12.930Z,8.75
2018-06-21T22:01:47.355Z,11.08
2018-06-21T22:04:22.683Z,9.75
2018-06-21T22:06:57.175Z,10.75
2018-06-21T22:09:31.499Z,10.25
2018-06-21T22:12:06.090Z,11.40
2018-06-21T22:14:40.682Z,12.23
2018-06-21T22:17:15.043Z,12.45
2018-06-21T22:19:49.349Z,11.15
2018-06-21T22:22:23.757Z,12.03
2018-06-21T22:24:58.232Z,11.90
2018-06-21T22:27:32.658Z,9.50
2018-06-21T22:30:06.962Z,12.35
2018-06-21T22:32:41.355Z,9.55
2018-06-21T22:35:15.840Z,10.70
2018-06-21T22:37:50.506Z,11.65
2018-06-21T22:40:24.893Z,11.40
2018-06-21T22:42:59.326Z,10.90
2018-06-21T22:45:33.778Z,11.63
2018-06-21T22:48:08.193Z,12.18
2018-06-21T22:50:42.988Z,10.10
2018-06-21T22:53:17.521Z,7.20
2018-06-21T22:55:51.918Z,6.62
2018-06-21T22:58:26.233Z,6.55
2018-06-21T23:01:00.679Z,7.53
2018-06-21T23:03:35.138Z,6.37
2018-06-21T23:06:09.688Z,6.47
2018-06-21T23:08:43.979Z,5.90
2018-06-21T23:11:18.736Z,7.60
2018-06-21T23:13:53.224Z,7.08
2018-06-21T23:16:27.567Z,6.42
2018-06-21T23:19:13.283Z,6.80
2018-06-21T23:21:47.540Z,5.47
2018-06-21T23:24:22.477Z,5.20
2018-06-21T23:26:56.928Z,5.10
2018-06-21T23:29:31.202Z,5.05
2018-06-21T23:32:05.561Z,5.95
2018-06-21T23:34:39.639Z,5.62
2018-06-21T23:37:14.046Z,5.12
2018-06-21T23:39:48.385Z,3.75
2018-06-21T23:42:22.646Z,3.40
2018-06-21T23:44:57.337Z,3.15
2018-06-21T23:47:31.914Z,2.92
2018-06-21T23:50:06.205Z,2.90
2018-06-21T23:52:40.779Z,3.05
2018-06-21T23:55:15.170Z,3.00
2018-06-21T23:57:49.680Z,3.58
